sensor_id;sensor_type;location;lat;lon;timestamp;P1;durP1;ratioP1;P2;durP2;ratioP2
9156;SDS011;4613;48.392;9.998;2023-05-17T00:00:38;1.13;;;1.00;;
9156;SDS011;4613;48.392;9.998;2023-05-17T00:03:28;0.80;;;0.67;;
9156;SDS011;4613;48.392;9.998;2023-05-17T00:06:17;0.80;;;0.80;;
9156;SDS011;4613;48.392;9.998;2023-05-17T00:09:06;0.70;;;0.70;;
9156;SDS011;4613;48.392;9.998;2023-05-17T00:11:55;0.97;;;0.93;;
9156;SDS011;4613;48.392;9.998;2023-05-17T00:14:44;2.10;;;0.90;;
9156;SDS011;4613;48.392;9.998;2023-05-17T00:17:33;2.20;;;0.93;;
9156;SDS011;4613;48.392;9.998;2023-05-17T00:20:24;0.77;;;0.60;;
9156;SDS011;4613;48.392;9.998;2023-05-17T00:23:14;0.70;;;0.70;;
9156;SDS011;4613;48.392;9.998;2023-05-17T00:26:03;0.80;;;0.80;;
9156;SDS011;4613;48.392;9.998;2023-05-17T00:28:52;0.80;;;0.60;;
9156;SDS011;4613;48.392;9.998;2023-05-17T00:31:41;0.80;;;0.80;;
9156;SDS011;4613;48.392;9.998;2023-05-17T00:34:30;0.70;;;0.70;;
9156;SDS011;4613;48.392;9.998;2023-05-17T00:37:19;1.67;;;0.80;;
9156;SDS011;4613;48.392;9.998;2023-05-17T00:40:08;1.30;;;0.70;;
9156;SDS011;4613;48.392;9.998;2023-05-17T00:42:58;0.73;;;0.70;;
9156;SDS011;4613;48.392;9.998;2023-05-17T00:45:47;0.90;;;0.90;;
9156;SDS011;4613;48.392;9.998;2023-05-17T00:48:38;0.80;;;0.80;;
9156;SDS011;4613;48.392;9.998;2023-05-17T00:51:28;1.00;;;0.90;;
9156;SDS011;4613;48.392;9.998;2023-05-17T00:54:17;1.93;;;0.90;;
9156;SDS011;4613;48.392;9.998;2023-05-17T00:57:06;1.07;;;0.70;;
9156;SDS011;4613;48.392;9.998;2023-05-17T00:59:57;1.97;;;0.80;;
9156;SDS011;4613;48.392;9.998;2023-05-17T01:02:47;1.23;;;0.67;;
9156;SDS011;4613;48.392;9.998;2023-05-17T01:05:37;0.70;;;0.70;;
9156;SDS011;4613;48.392;9.998;2023-05-17T01:08:26;0.60;;;0.60;;
9156;SDS011;4613;48.392;9.998;2023-05-17T01:14:57;0.70;;;0.70;;
9156;SDS011;4613;48.392;9.998;2023-05-17T01:21:05;1.33;;;0.80;;
9156;SDS011;4613;48.392;9.998;2023-05-17T01:27:16;1.27;;;0.90;;
9156;SDS011;4613;48.392;9.998;2023-05-17T01:30:09;0.50;;;0.50;;
9156;SDS011;4613;48.392;9.998;2023-05-17T01:33:01;1.27;;;0.90;;
9156;SDS011;4613;48.392;9.998;2023-05-17T01:35:52;1.00;;;0.87;;
9156;SDS011;4613;48.392;9.998;2023-05-17T01:38:43;1.03;;;1.00;;
9156;SDS011;4613;48.392;9.998;2023-05-17T01:41:35;3.30;;;0.73;;
9156;SDS011;4613;48.392;9.998;2023-05-17T01:44:31;0.80;;;0.80;;
9156;SDS011;4613;48.392;9.998;2023-05-17T01:50:46;1.50;;;0.80;;
9156;SDS011;4613;48.392;9.998;2023-05-17T01:53:38;1.20;;;0.93;;
9156;SDS011;4613;48.392;9.998;2023-05-17T01:56:35;0.93;;;0.90;;
9156;SDS011;4613;48.392;9.998;2023-05-17T01:59:32;0.60;;;0.60;;
9156;SDS011;4613;48.392;9.998;2023-05-17T02:02:25;0.77;;;0.77;;
9156;SDS011;4613;48.392;9.998;2023-05-17T02:05:16;0.70;;;0.70;;
9156;SDS011;4613;48.392;9.998;2023-05-17T02:08:05;0.60;;;0.60;;
9156;SDS011;4613;48.392;9.998;2023-05-17T02:10:54;3.67;;;0.90;;
9156;SDS011;4613;48.392;9.998;2023-05-17T02:13:44;0.97;;;0.97;;
9156;SDS011;4613;48.392;9.998;2023-05-17T02:16:34;0.60;;;0.60;;
9156;SDS011;4613;48.392;9.998;2023-05-17T02:19:23;0.70;;;0.70;;
9156;SDS011;4613;48.392;9.998;2023-05-17T02:22:12;1.37;;;0.87;;
9156;SDS011;4613;48.392;9.998;2023-05-17T02:25:01;0.93;;;0.93;;
9156;SDS011;4613;48.392;9.998;2023-05-17T02:27:51;0.70;;;0.70;;
9156;SDS011;4613;48.392;9.998;2023-05-17T02:30:41;1.30;;;0.90;;
9156;SDS011;4613;48.392;9.998;2023-05-17T02:33:30;0.80;;;0.80;;
9156;SDS011;4613;48.392;9.998;2023-05-17T02:36:19;0.93;;;0.80;;
9156;SDS011;4613;48.392;9.998;2023-05-17T02:39:09;1.23;;;0.63;;
9156;SDS011;4613;48.392;9.998;2023-05-17T02:42:00;0.60;;;0.60;;
9156;SDS011;4613;48.392;9.998;2023-05-17T02:44:49;0.70;;;0.70;;
9156;SDS011;4613;48.392;9.998;2023-05-17T02:47:40;0.70;;;0.70;;
9156;SDS011;4613;48.392;9.998;2023-05-17T02:50:30;0.70;;;0.70;;
9156;SDS011;4613;48.392;9.998;2023-05-17T02:53:20;0.80;;;0.80;;
9156;SDS011;4613;48.392;9.998;2023-05-17T02:56:10;1.10;;;1.00;;
9156;SDS011;4613;48.392;9.998;2023-05-17T02:59:00;1.10;;;1.00;;
9156;SDS011;4613;48.392;9.998;2023-05-17T03:01:50;1.03;;;0.80;;
9156;SDS011;4613;48.392;9.998;2023-05-17T03:04:39;0.87;;;0.80;;
9156;SDS011;4613;48.392;9.998;2023-05-17T03:07:30;1.37;;;1.10;;
9156;SDS011;4613;48.392;9.998;2023-05-17T03:10:20;2.43;;;1.20;;
9156;SDS011;4613;48.392;9.998;2023-05-17T03:13:10;0.73;;;0.73;;
9156;SDS011;4613;48.392;9.998;2023-05-17T03:16:02;1.23;;;1.00;;
9156;SDS011;4613;48.392;9.998;2023-05-17T03:18:51;0.70;;;0.70;;
9156;SDS011;4613;48.392;9.998;2023-05-17T03:21:41;0.90;;;0.80;;
9156;SDS011;4613;48.392;9.998;2023-05-17T03:24:31;0.70;;;0.70;;
9156;SDS011;4613;48.392;9.998;2023-05-17T03:27:22;0.70;;;0.70;;
9156;SDS011;4613;48.392;9.998;2023-05-17T03:30:11;0.70;;;0.70;;
9156;SDS011;4613;48.392;9.998;2023-05-17T03:33:01;1.00;;;0.97;;
9156;SDS011;4613;48.392;9.998;2023-05-17T03:35:50;0.83;;;0.83;;
9156;SDS011;4613;48.392;9.998;2023-05-17T03:38:39;0.80;;;0.80;;
9156;SDS011;4613;48.392;9.998;2023-05-17T03:41:28;1.03;;;0.93;;
9156;SDS011;4613;48.392;9.998;2023-05-17T03:44:20;1.03;;;0.93;;
9156;SDS011;4613;48.392;9.998;2023-05-17T03:47:10;1.07;;;0.70;;
9156;SDS011;4613;48.392;9.998;2023-05-17T03:49:59;0.60;;;0.60;;
9156;SDS011;4613;48.392;9.998;2023-05-17T03:52:49;0.80;;;0.80;;
9156;SDS011;4613;48.392;9.998;2023-05-17T03:55:38;1.30;;;0.70;;
9156;SDS011;4613;48.392;9.998;2023-05-17T03:58:27;0.80;;;0.73;;
9156;SDS011;4613;48.392;9.998;2023-05-17T04:01:17;0.83;;;0.60;;
9156;SDS011;4613;48.392;9.998;2023-05-17T04:04:09;0.67;;;0.60;;
9156;SDS011;4613;48.392;9.998;2023-05-17T04:06:59;1.70;;;0.60;;
9156;SDS011;4613;48.392;9.998;2023-05-17T04:09:49;0.60;;;0.60;;
9156;SDS011;4613;48.392;9.998;2023-05-17T04:12:39;1.67;;;1.40;;
9156;SDS011;4613;48.392;9.998;2023-05-17T04:15:29;0.90;;;0.60;;
9156;SDS011;4613;48.392;9.998;2023-05-17T04:18:18;1.23;;;0.90;;
9156;SDS011;4613;48.392;9.998;2023-05-17T04:21:08;0.87;;;0.77;;
9156;SDS011;4613;48.392;9.998;2023-05-17T04:23:58;1.23;;;0.90;;
9156;SDS011;4613;48.392;9.998;2023-05-17T04:26:48;0.70;;;0.67;;
9156;SDS011;4613;48.392;9.998;2023-05-17T04:29:40;1.03;;;0.87;;
9156;SDS011;4613;48.392;9.998;2023-05-17T04:32:30;0.73;;;0.73;;
9156;SDS011;4613;48.392;9.998;2023-05-17T04:35:22;1.10;;;1.10;;
9156;SDS011;4613;48.392;9.998;2023-05-17T04:38:14;1.70;;;1.30;;
9156;SDS011;4613;48.392;9.998;2023-05-17T04:41:04;1.73;;;0.83;;
9156;SDS011;4613;48.392;9.998;2023-05-17T04:43:57;1.20;;;1.10;;
9156;SDS011;4613;48.392;9.998;2023-05-17T04:46:53;0.70;;;0.70;;
9156;SDS011;4613;48.392;9.998;2023-05-17T04:49:42;3.60;;;0.90;;
9156;SDS011;4613;48.392;9.998;2023-05-17T04:52:32;1.97;;;0.93;;
9156;SDS011;4613;48.392;9.998;2023-05-17T04:55:21;1.30;;;1.17;;
9156;SDS011;4613;48.392;9.998;2023-05-17T04:58:11;0.70;;;0.67;;
9156;SDS011;4613;48.392;9.998;2023-05-17T05:01:04;0.80;;;0.80;;
9156;SDS011;4613;48.392;9.998;2023-05-17T05:03:53;2.87;;;0.90;;
9156;SDS011;4613;48.392;9.998;2023-05-17T05:06:44;0.93;;;0.90;;
9156;SDS011;4613;48.392;9.998;2023-05-17T05:09:34;1.07;;;0.97;;
9156;SDS011;4613;48.392;9.998;2023-05-17T05:12:23;1.03;;;0.90;;
9156;SDS011;4613;48.392;9.998;2023-05-17T05:15:13;3.13;;;1.33;;
9156;SDS011;4613;48.392;9.998;2023-05-17T05:18:11;1.30;;;1.10;;
9156;SDS011;4613;48.392;9.998;2023-05-17T05:21:01;2.87;;;1.00;;
9156;SDS011;4613;48.392;9.998;2023-05-17T05:23:52;2.57;;;1.10;;
9156;SDS011;4613;48.392;9.998;2023-05-17T05:26:42;0.83;;;0.83;;
9156;SDS011;4613;48.392;9.998;2023-05-17T05:29:36;1.37;;;1.27;;
9156;SDS011;4613;48.392;9.998;2023-05-17T05:32:26;1.47;;;1.10;;
9156;SDS011;4613;48.392;9.998;2023-05-17T05:35:15;0.90;;;0.90;;
9156;SDS011;4613;48.392;9.998;2023-05-17T05:38:05;1.83;;;1.20;;
9156;SDS011;4613;48.392;9.998;2023-05-17T05:40:56;0.70;;;0.70;;
9156;SDS011;4613;48.392;9.998;2023-05-17T05:43:45;1.20;;;0.90;;
9156;SDS011;4613;48.392;9.998;2023-05-17T05:46:35;0.80;;;0.80;;
9156;SDS011;4613;48.392;9.998;2023-05-17T05:49:26;1.47;;;1.10;;
9156;SDS011;4613;48.392;9.998;2023-05-17T05:52:17;1.67;;;1.00;;
9156;SDS011;4613;48.392;9.998;2023-05-17T05:55:07;0.90;;;0.90;;
9156;SDS011;4613;48.392;9.998;2023-05-17T05:57:57;2.23;;;1.30;;
9156;SDS011;4613;48.392;9.998;2023-05-17T06:00:50;1.10;;;1.00;;
9156;SDS011;4613;48.392;9.998;2023-05-17T06:03:39;1.13;;;1.03;;
9156;SDS011;4613;48.392;9.998;2023-05-17T06:06:28;1.30;;;1.20;;
9156;SDS011;4613;48.392;9.998;2023-05-17T06:09:19;0.90;;;0.90;;
9156;SDS011;4613;48.392;9.998;2023-05-17T06:12:08;1.03;;;0.93;;
9156;SDS011;4613;48.392;9.998;2023-05-17T06:14:57;1.00;;;0.90;;
9156;SDS011;4613;48.392;9.998;2023-05-17T06:17:46;0.93;;;0.93;;
9156;SDS011;4613;48.392;9.998;2023-05-17T06:20:35;1.40;;;1.00;;
9156;SDS011;4613;48.392;9.998;2023-05-17T06:23:24;1.77;;;0.90;;
9156;SDS011;4613;48.392;9.998;2023-05-17T06:26:13;0.87;;;0.80;;
9156;SDS011;4613;48.392;9.998;2023-05-17T06:29:02;1.07;;;0.93;;
9156;SDS011;4613;48.392;9.998;2023-05-17T06:31:51;0.97;;;0.87;;
9156;SDS011;4613;48.392;9.998;2023-05-17T06:34:41;1.07;;;0.80;;
9156;SDS011;4613;48.392;9.998;2023-05-17T06:37:30;0.90;;;0.90;;
9156;SDS011;4613;48.392;9.998;2023-05-17T06:40:19;1.13;;;1.00;;
9156;SDS011;4613;48.392;9.998;2023-05-17T06:43:09;1.53;;;0.90;;
9156;SDS011;4613;48.392;9.998;2023-05-17T06:45:57;4.03;;;1.03;;
9156;SDS011;4613;48.392;9.998;2023-05-17T06:48:47;3.20;;;1.00;;
9156;SDS011;4613;48.392;9.998;2023-05-17T06:51:36;1.00;;;0.90;;
9156;SDS011;4613;48.392;9.998;2023-05-17T06:54:25;3.50;;;1.17;;
9156;SDS011;4613;48.392;9.998;2023-05-17T06:57:14;1.20;;;0.80;;
9156;SDS011;4613;48.392;9.998;2023-05-17T07:00:03;1.03;;;1.00;;
9156;SDS011;4613;48.392;9.998;2023-05-17T07:02:58;1.17;;;1.00;;
9156;SDS011;4613;48.392;9.998;2023-05-17T07:05:47;1.23;;;0.87;;
9156;SDS011;4613;48.392;9.998;2023-05-17T07:08:37;0.80;;;0.80;;
9156;SDS011;4613;48.392;9.998;2023-05-17T07:11:26;1.37;;;1.00;;
9156;SDS011;4613;48.392;9.998;2023-05-17T07:14:15;1.10;;;1.00;;
9156;SDS011;4613;48.392;9.998;2023-05-17T07:17:04;0.93;;;0.93;;
9156;SDS011;4613;48.392;9.998;2023-05-17T07:19:53;1.83;;;1.27;;
9156;SDS011;4613;48.392;9.998;2023-05-17T07:22:42;2.57;;;1.70;;
9156;SDS011;4613;48.392;9.998;2023-05-17T07:25:32;0.80;;;0.80;;
9156;SDS011;4613;48.392;9.998;2023-05-17T07:28:21;1.33;;;1.20;;
9156;SDS011;4613;48.392;9.998;2023-05-17T07:31:10;1.63;;;1.10;;
9156;SDS011;4613;48.392;9.998;2023-05-17T07:33:59;1.37;;;1.07;;
9156;SDS011;4613;48.392;9.998;2023-05-17T07:36:48;2.90;;;1.10;;
9156;SDS011;4613;48.392;9.998;2023-05-17T07:39:37;1.87;;;1.03;;
9156;SDS011;4613;48.392;9.998;2023-05-17T07:42:27;1.37;;;1.10;;
9156;SDS011;4613;48.392;9.998;2023-05-17T07:45:16;1.37;;;1.10;;
9156;SDS011;4613;48.392;9.998;2023-05-17T07:48:06;1.17;;;0.90;;
9156;SDS011;4613;48.392;9.998;2023-05-17T07:50:55;2.30;;;1.10;;
9156;SDS011;4613;48.392;9.998;2023-05-17T07:53:44;2.97;;;1.00;;
9156;SDS011;4613;48.392;9.998;2023-05-17T07:56:33;1.10;;;1.00;;
9156;SDS011;4613;48.392;9.998;2023-05-17T07:59:22;1.03;;;1.00;;
9156;SDS011;4613;48.392;9.998;2023-05-17T08:02:12;1.57;;;1.00;;
9156;SDS011;4613;48.392;9.998;2023-05-17T08:05:01;0.83;;;0.83;;
9156;SDS011;4613;48.392;9.998;2023-05-17T08:07:51;1.33;;;0.97;;
9156;SDS011;4613;48.392;9.998;2023-05-17T08:10:40;1.63;;;1.10;;
9156;SDS011;4613;48.392;9.998;2023-05-17T08:13:30;1.60;;;1.10;;
9156;SDS011;4613;48.392;9.998;2023-05-17T08:16:19;1.17;;;0.97;;
9156;SDS011;4613;48.392;9.998;2023-05-17T08:19:09;4.03;;;1.10;;
9156;SDS011;4613;48.392;9.998;2023-05-17T08:22:03;0.87;;;0.87;;
9156;SDS011;4613;48.392;9.998;2023-05-17T08:24:52;1.10;;;0.90;;
9156;SDS011;4613;48.392;9.998;2023-05-17T08:27:41;1.60;;;1.10;;
9156;SDS011;4613;48.392;9.998;2023-05-17T08:30:30;1.63;;;1.20;;
9156;SDS011;4613;48.392;9.998;2023-05-17T08:33:19;2.50;;;1.00;;
9156;SDS011;4613;48.392;9.998;2023-05-17T08:36:10;0.90;;;0.90;;
9156;SDS011;4613;48.392;9.998;2023-05-17T08:38:59;1.50;;;0.90;;
9156;SDS011;4613;48.392;9.998;2023-05-17T08:41:48;1.10;;;1.10;;
9156;SDS011;4613;48.392;9.998;2023-05-17T08:44:37;0.90;;;0.90;;
9156;SDS011;4613;48.392;9.998;2023-05-17T08:47:26;1.03;;;0.93;;
9156;SDS011;4613;48.392;9.998;2023-05-17T08:50:19;1.03;;;1.00;;
9156;SDS011;4613;48.392;9.998;2023-05-17T08:53:10;1.33;;;1.23;;
9156;SDS011;4613;48.392;9.998;2023-05-17T08:56:01;1.87;;;1.33;;
9156;SDS011;4613;48.392;9.998;2023-05-17T08:58:54;1.77;;;1.03;;
9156;SDS011;4613;48.392;9.998;2023-05-17T09:01:45;3.23;;;1.10;;
9156;SDS011;4613;48.392;9.998;2023-05-17T09:04:37;2.93;;;1.17;;
9156;SDS011;4613;48.392;9.998;2023-05-17T09:07:27;2.07;;;1.10;;
9156;SDS011;4613;48.392;9.998;2023-05-17T09:10:16;0.87;;;0.87;;
9156;SDS011;4613;48.392;9.998;2023-05-17T09:13:05;0.80;;;0.80;;
9156;SDS011;4613;48.392;9.998;2023-05-17T09:15:55;1.07;;;1.07;;
9156;SDS011;4613;48.392;9.998;2023-05-17T09:18:51;1.10;;;1.00;;
9156;SDS011;4613;48.392;9.998;2023-05-17T09:21:44;3.37;;;1.40;;
9156;SDS011;4613;48.392;9.998;2023-05-17T09:24:35;0.90;;;0.90;;
9156;SDS011;4613;48.392;9.998;2023-05-17T09:27:24;1.63;;;1.17;;
9156;SDS011;4613;48.392;9.998;2023-05-17T09:30:13;1.57;;;1.10;;
9156;SDS011;4613;48.392;9.998;2023-05-17T09:33:07;1.20;;;1.03;;
9156;SDS011;4613;48.392;9.998;2023-05-17T09:35:58;1.47;;;1.17;;
9156;SDS011;4613;48.392;9.998;2023-05-17T09:41:43;1.30;;;1.20;;
9156;SDS011;4613;48.392;9.998;2023-05-17T09:44:44;1.90;;;1.23;;
9156;SDS011;4613;48.392;9.998;2023-05-17T09:47:35;0.90;;;0.90;;
9156;SDS011;4613;48.392;9.998;2023-05-17T09:50:24;1.70;;;1.13;;
9156;SDS011;4613;48.392;9.998;2023-05-17T09:53:27;0.93;;;0.90;;
9156;SDS011;4613;48.392;9.998;2023-05-17T09:56:17;1.53;;;1.00;;
9156;SDS011;4613;48.392;9.998;2023-05-17T09:59:13;1.10;;;1.10;;
9156;SDS011;4613;48.392;9.998;2023-05-17T10:02:03;1.30;;;1.20;;
9156;SDS011;4613;48.392;9.998;2023-05-17T10:04:58;1.53;;;1.43;;
9156;SDS011;4613;48.392;9.998;2023-05-17T10:07:52;1.30;;;1.20;;
9156;SDS011;4613;48.392;9.998;2023-05-17T10:10:44;1.40;;;1.30;;
9156;SDS011;4613;48.392;9.998;2023-05-17T10:13:39;1.73;;;1.30;;
9156;SDS011;4613;48.392;9.998;2023-05-17T10:16:49;4.03;;;1.50;;
9156;SDS011;4613;48.392;9.998;2023-05-17T10:19:40;2.50;;;1.43;;
9156;SDS011;4613;48.392;9.998;2023-05-17T10:22:29;1.10;;;1.00;;
9156;SDS011;4613;48.392;9.998;2023-05-17T10:25:20;1.10;;;1.00;;
9156;SDS011;4613;48.392;9.998;2023-05-17T10:28:09;1.00;;;1.00;;
9156;SDS011;4613;48.392;9.998;2023-05-17T10:31:00;1.43;;;1.20;;
9156;SDS011;4613;48.392;9.998;2023-05-17T10:33:51;1.63;;;1.40;;
9156;SDS011;4613;48.392;9.998;2023-05-17T10:36:41;3.53;;;1.20;;
9156;SDS011;4613;48.392;9.998;2023-05-17T10:39:32;1.40;;;1.30;;
9156;SDS011;4613;48.392;9.998;2023-05-17T10:42:22;1.73;;;1.17;;
9156;SDS011;4613;48.392;9.998;2023-05-17T10:45:13;1.43;;;1.30;;
9156;SDS011;4613;48.392;9.998;2023-05-17T10:48:03;2.43;;;1.50;;
9156;SDS011;4613;48.392;9.998;2023-05-17T10:50:53;2.13;;;1.30;;
9156;SDS011;4613;48.392;9.998;2023-05-17T10:56:51;1.40;;;1.30;;
9156;SDS011;4613;48.392;9.998;2023-05-17T10:59:54;1.83;;;1.43;;
9156;SDS011;4613;48.392;9.998;2023-05-17T11:02:47;1.87;;;1.33;;
9156;SDS011;4613;48.392;9.998;2023-05-17T11:06:21;2.27;;;1.50;;
9156;SDS011;4613;48.392;9.998;2023-05-17T11:09:07;1.73;;;1.30;;
9156;SDS011;4613;48.392;9.998;2023-05-17T11:12:04;2.40;;;1.60;;
9156;SDS011;4613;48.392;9.998;2023-05-17T11:14:55;1.50;;;1.10;;
9156;SDS011;4613;48.392;9.998;2023-05-17T11:17:46;1.70;;;1.40;;
9156;SDS011;4613;48.392;9.998;2023-05-17T11:20:43;1.20;;;1.20;;
9156;SDS011;4613;48.392;9.998;2023-05-17T11:23:32;1.40;;;1.30;;
9156;SDS011;4613;48.392;9.998;2023-05-17T11:26:27;1.90;;;1.30;;
9156;SDS011;4613;48.392;9.998;2023-05-17T11:29:21;1.67;;;1.50;;
9156;SDS011;4613;48.392;9.998;2023-05-17T11:32:17;1.27;;;1.10;;
9156;SDS011;4613;48.392;9.998;2023-05-17T11:35:10;1.20;;;1.10;;
9156;SDS011;4613;48.392;9.998;2023-05-17T11:38:17;2.50;;;1.40;;
9156;SDS011;4613;48.392;9.998;2023-05-17T11:41:15;1.60;;;1.40;;
9156;SDS011;4613;48.392;9.998;2023-05-17T11:44:09;2.90;;;1.13;;
9156;SDS011;4613;48.392;9.998;2023-05-17T11:47:05;1.63;;;1.30;;
9156;SDS011;4613;48.392;9.998;2023-05-17T11:50:00;1.37;;;1.27;;
9156;SDS011;4613;48.392;9.998;2023-05-17T11:52:50;1.20;;;1.10;;
9156;SDS011;4613;48.392;9.998;2023-05-17T11:55:42;2.50;;;1.40;;
9156;SDS011;4613;48.392;9.998;2023-05-17T11:58:35;2.53;;;1.53;;
9156;SDS011;4613;48.392;9.998;2023-05-17T12:01:25;1.60;;;1.40;;
9156;SDS011;4613;48.392;9.998;2023-05-17T12:04:21;2.83;;;1.30;;
9156;SDS011;4613;48.392;9.998;2023-05-17T12:07:13;1.87;;;1.27;;
9156;SDS011;4613;48.392;9.998;2023-05-17T12:10:03;1.30;;;1.20;;
9156;SDS011;4613;48.392;9.998;2023-05-17T12:12:54;2.00;;;1.47;;
9156;SDS011;4613;48.392;9.998;2023-05-17T12:15:51;1.77;;;1.30;;
9156;SDS011;4613;48.392;9.998;2023-05-17T12:18:48;1.80;;;1.20;;
9156;SDS011;4613;48.392;9.998;2023-05-17T12:21:38;1.50;;;1.30;;
9156;SDS011;4613;48.392;9.998;2023-05-17T12:24:34;3.23;;;1.23;;
9156;SDS011;4613;48.392;9.998;2023-05-17T12:27:25;1.70;;;1.40;;
9156;SDS011;4613;48.392;9.998;2023-05-17T12:30:14;1.60;;;1.40;;
9156;SDS011;4613;48.392;9.998;2023-05-17T12:33:04;1.50;;;1.30;;
9156;SDS011;4613;48.392;9.998;2023-05-17T12:35:54;2.80;;;1.70;;
9156;SDS011;4613;48.392;9.998;2023-05-17T12:38:44;1.30;;;1.20;;
9156;SDS011;4613;48.392;9.998;2023-05-17T12:41:35;1.70;;;1.50;;
9156;SDS011;4613;48.392;9.998;2023-05-17T12:44:26;1.83;;;1.43;;
9156;SDS011;4613;48.392;9.998;2023-05-17T12:47:15;1.60;;;1.40;;
9156;SDS011;4613;48.392;9.998;2023-05-17T12:50:04;1.57;;;1.47;;
9156;SDS011;4613;48.392;9.998;2023-05-17T12:52:53;1.80;;;1.40;;
9156;SDS011;4613;48.392;9.998;2023-05-17T12:55:42;2.00;;;1.50;;
9156;SDS011;4613;48.392;9.998;2023-05-17T12:58:31;1.70;;;1.40;;
9156;SDS011;4613;48.392;9.998;2023-05-17T13:01:21;1.90;;;1.47;;
9156;SDS011;4613;48.392;9.998;2023-05-17T13:04:11;1.97;;;1.80;;
9156;SDS011;4613;48.392;9.998;2023-05-17T13:07:02;1.60;;;1.30;;
9156;SDS011;4613;48.392;9.998;2023-05-17T13:09:52;1.40;;;1.30;;
9156;SDS011;4613;48.392;9.998;2023-05-17T13:12:41;2.53;;;1.60;;
9156;SDS011;4613;48.392;9.998;2023-05-17T13:15:31;1.40;;;1.30;;
9156;SDS011;4613;48.392;9.998;2023-05-17T13:18:21;1.60;;;1.50;;
9156;SDS011;4613;48.392;9.998;2023-05-17T13:21:11;1.67;;;1.40;;
9156;SDS011;4613;48.392;9.998;2023-05-17T13:24:01;2.00;;;1.60;;
9156;SDS011;4613;48.392;9.998;2023-05-17T13:26:50;1.83;;;1.57;;
9156;SDS011;4613;48.392;9.998;2023-05-17T13:29:40;1.90;;;1.60;;
9156;SDS011;4613;48.392;9.998;2023-05-17T13:32:30;1.93;;;1.53;;
9156;SDS011;4613;48.392;9.998;2023-05-17T13:35:20;2.77;;;1.60;;
9156;SDS011;4613;48.392;9.998;2023-05-17T13:38:09;1.63;;;1.40;;
9156;SDS011;4613;48.392;9.998;2023-05-17T13:40:58;2.77;;;1.80;;
9156;SDS011;4613;48.392;9.998;2023-05-17T13:43:48;2.80;;;1.60;;
9156;SDS011;4613;48.392;9.998;2023-05-17T13:46:37;1.87;;;1.67;;
9156;SDS011;4613;48.392;9.998;2023-05-17T13:49:26;3.77;;;1.70;;
9156;SDS011;4613;48.392;9.998;2023-05-17T13:52:15;1.73;;;1.60;;
9156;SDS011;4613;48.392;9.998;2023-05-17T13:55:06;1.80;;;1.70;;
9156;SDS011;4613;48.392;9.998;2023-05-17T13:57:56;1.83;;;1.50;;
9156;SDS011;4613;48.392;9.998;2023-05-17T14:00:45;1.67;;;1.57;;
9156;SDS011;4613;48.392;9.998;2023-05-17T14:03:34;2.70;;;1.70;;
9156;SDS011;4613;48.392;9.998;2023-05-17T14:06:24;2.47;;;1.80;;
9156;SDS011;4613;48.392;9.998;2023-05-17T14:09:13;2.53;;;1.80;;
9156;SDS011;4613;48.392;9.998;2023-05-17T14:12:02;1.83;;;1.67;;
9156;SDS011;4613;48.392;9.998;2023-05-17T14:14:52;2.83;;;1.60;;
9156;SDS011;4613;48.392;9.998;2023-05-17T14:17:42;2.00;;;1.53;;
9156;SDS011;4613;48.392;9.998;2023-05-17T14:20:31;2.87;;;1.70;;
9156;SDS011;4613;48.392;9.998;2023-05-17T14:23:21;2.00;;;1.60;;
9156;SDS011;4613;48.392;9.998;2023-05-17T14:26:10;2.20;;;1.60;;
9156;SDS011;4613;48.392;9.998;2023-05-17T14:28:59;2.23;;;1.73;;
9156;SDS011;4613;48.392;9.998;2023-05-17T14:31:49;2.63;;;1.70;;
9156;SDS011;4613;48.392;9.998;2023-05-17T14:34:38;2.50;;;1.77;;
9156;SDS011;4613;48.392;9.998;2023-05-17T14:37:27;1.67;;;1.47;;
9156;SDS011;4613;48.392;9.998;2023-05-17T14:40:16;3.10;;;1.67;;
9156;SDS011;4613;48.392;9.998;2023-05-17T14:43:05;2.43;;;1.40;;
9156;SDS011;4613;48.392;9.998;2023-05-17T14:45:54;2.30;;;1.67;;
9156;SDS011;4613;48.392;9.998;2023-05-17T14:48:44;2.00;;;1.57;;
9156;SDS011;4613;48.392;9.998;2023-05-17T14:51:32;1.70;;;1.60;;
9156;SDS011;4613;48.392;9.998;2023-05-17T14:54:22;4.63;;;1.77;;
9156;SDS011;4613;48.392;9.998;2023-05-17T14:57:13;2.03;;;1.50;;
9156;SDS011;4613;48.392;9.998;2023-05-17T15:00:02;2.33;;;1.67;;
9156;SDS011;4613;48.392;9.998;2023-05-17T15:02:58;2.73;;;1.80;;
9156;SDS011;4613;48.392;9.998;2023-05-17T15:05:51;2.17;;;1.70;;
9156;SDS011;4613;48.392;9.998;2023-05-17T15:08:42;2.43;;;1.57;;
9156;SDS011;4613;48.392;9.998;2023-05-17T15:11:31;1.73;;;1.53;;
9156;SDS011;4613;48.392;9.998;2023-05-17T15:14:21;1.97;;;1.40;;
9156;SDS011;4613;48.392;9.998;2023-05-17T15:17:12;2.90;;;1.80;;
9156;SDS011;4613;48.392;9.998;2023-05-17T15:20:01;2.97;;;1.30;;
9156;SDS011;4613;48.392;9.998;2023-05-17T15:22:51;2.07;;;1.40;;
9156;SDS011;4613;48.392;9.998;2023-05-17T15:25:40;1.93;;;1.20;;
9156;SDS011;4613;48.392;9.998;2023-05-17T15:28:29;1.80;;;1.60;;
9156;SDS011;4613;48.392;9.998;2023-05-17T15:31:19;1.40;;;1.27;;
9156;SDS011;4613;48.392;9.998;2023-05-17T15:34:08;1.63;;;1.53;;
9156;SDS011;4613;48.392;9.998;2023-05-17T15:36:57;1.30;;;1.20;;
9156;SDS011;4613;48.392;9.998;2023-05-17T15:39:46;1.73;;;1.63;;
9156;SDS011;4613;48.392;9.998;2023-05-17T15:42:36;1.57;;;1.47;;
9156;SDS011;4613;48.392;9.998;2023-05-17T15:45:25;2.43;;;1.53;;
9156;SDS011;4613;48.392;9.998;2023-05-17T15:48:14;2.60;;;1.80;;
9156;SDS011;4613;48.392;9.998;2023-05-17T15:51:04;1.70;;;1.50;;
9156;SDS011;4613;48.392;9.998;2023-05-17T15:53:54;1.67;;;1.50;;
9156;SDS011;4613;48.392;9.998;2023-05-17T15:56:43;2.83;;;1.80;;
9156;SDS011;4613;48.392;9.998;2023-05-17T15:59:32;1.93;;;1.50;;
9156;SDS011;4613;48.392;9.998;2023-05-17T16:02:22;2.50;;;1.37;;
9156;SDS011;4613;48.392;9.998;2023-05-17T16:05:12;2.20;;;1.70;;
9156;SDS011;4613;48.392;9.998;2023-05-17T16:08:01;3.17;;;1.93;;
9156;SDS011;4613;48.392;9.998;2023-05-17T16:10:50;3.93;;;1.93;;
9156;SDS011;4613;48.392;9.998;2023-05-17T16:13:39;2.23;;;1.63;;
9156;SDS011;4613;48.392;9.998;2023-05-17T16:16:29;1.90;;;1.53;;
9156;SDS011;4613;48.392;9.998;2023-05-17T16:19:18;2.33;;;1.67;;
9156;SDS011;4613;48.392;9.998;2023-05-17T16:22:08;1.67;;;1.50;;
9156;SDS011;4613;48.392;9.998;2023-05-17T16:24:57;2.27;;;1.83;;
9156;SDS011;4613;48.392;9.998;2023-05-17T16:27:47;2.57;;;1.50;;
9156;SDS011;4613;48.392;9.998;2023-05-17T16:30:36;2.23;;;1.50;;
9156;SDS011;4613;48.392;9.998;2023-05-17T16:33:29;2.23;;;1.70;;
9156;SDS011;4613;48.392;9.998;2023-05-17T16:36:19;1.60;;;1.50;;
9156;SDS011;4613;48.392;9.998;2023-05-17T16:39:10;1.53;;;1.43;;
9156;SDS011;4613;48.392;9.998;2023-05-17T16:42:00;2.47;;;1.70;;
9156;SDS011;4613;48.392;9.998;2023-05-17T16:44:49;2.30;;;1.50;;
9156;SDS011;4613;48.392;9.998;2023-05-17T16:47:38;1.83;;;1.50;;
9156;SDS011;4613;48.392;9.998;2023-05-17T16:50:27;2.30;;;1.77;;
9156;SDS011;4613;48.392;9.998;2023-05-17T16:53:16;5.17;;;1.73;;
9156;SDS011;4613;48.392;9.998;2023-05-17T16:56:05;1.70;;;1.50;;
9156;SDS011;4613;48.392;9.998;2023-05-17T16:58:55;2.03;;;1.30;;
9156;SDS011;4613;48.392;9.998;2023-05-17T17:01:44;1.70;;;1.60;;
9156;SDS011;4613;48.392;9.998;2023-05-17T17:04:37;3.23;;;1.40;;
9156;SDS011;4613;48.392;9.998;2023-05-17T17:07:28;1.80;;;1.57;;
9156;SDS011;4613;48.392;9.998;2023-05-17T17:10:17;1.70;;;1.60;;
9156;SDS011;4613;48.392;9.998;2023-05-17T17:13:08;2.37;;;1.53;;
9156;SDS011;4613;48.392;9.998;2023-05-17T17:15:57;3.03;;;1.87;;
9156;SDS011;4613;48.392;9.998;2023-05-17T17:18:46;1.47;;;1.37;;
9156;SDS011;4613;48.392;9.998;2023-05-17T17:21:36;1.70;;;1.53;;
9156;SDS011;4613;48.392;9.998;2023-05-17T17:24:26;2.67;;;1.40;;
9156;SDS011;4613;48.392;9.998;2023-05-17T17:27:15;2.13;;;1.70;;
9156;SDS011;4613;48.392;9.998;2023-05-17T17:30:05;1.97;;;1.67;;
9156;SDS011;4613;48.392;9.998;2023-05-17T17:32:55;1.90;;;1.50;;
9156;SDS011;4613;48.392;9.998;2023-05-17T17:35:45;2.30;;;1.57;;
9156;SDS011;4613;48.392;9.998;2023-05-17T17:38:34;1.70;;;1.50;;
9156;SDS011;4613;48.392;9.998;2023-05-17T17:41:23;1.80;;;1.70;;
9156;SDS011;4613;48.392;9.998;2023-05-17T17:44:12;1.67;;;1.47;;
9156;SDS011;4613;48.392;9.998;2023-05-17T17:47:03;1.47;;;1.37;;
9156;SDS011;4613;48.392;9.998;2023-05-17T17:49:52;2.03;;;1.60;;
9156;SDS011;4613;48.392;9.998;2023-05-17T17:52:41;1.97;;;1.57;;
9156;SDS011;4613;48.392;9.998;2023-05-17T17:55:30;1.60;;;1.50;;
9156;SDS011;4613;48.392;9.998;2023-05-17T17:58:20;1.73;;;1.50;;